VKG176 EKCH-LGIR
Flight info
| Callsign | VKG176 |
|---|---|
| Flight time | N/A |
| Altitude | 37000 |
| Route | SIMEG Z491 TELMO DCT KEKOV DCT POKEN Z491 VAVUN L996 DENKO L616 DESEN DCT VALPI DCT PARAK DCT RAXAD DCT MAKED UL617 KEA UL607 GIVIS UT514 XAVIS |
| Aircraft | A21N/M-SDE2E3FGHIRWXY/LB1 |
Departure
| Time | 2026-04-25 10:34 |
|---|---|
| Airport | Copenhagen Kastrup Airport (EKCH) |
Arrival
| Time | N/A |
|---|---|
| Airport | Heraklion International Nikos Kazantzakis Airport (LGIR) |
| Time | Latitude | Longitude | Altitude | Speed | Heading |
|---|---|---|---|---|---|
| 2026-04-25 10:05 | 55.62902 | 12.63722 | 23 ft | 0 kts | 40° |
| 2026-04-25 10:24 | 55.62892 | 12.63706 | 24 ft | 3 kts | 41° |
| 2026-04-25 10:24 | 55.62876 | 12.63680 | 25 ft | 4 kts | 50° |
| 2026-04-25 10:24 | 55.62862 | 12.63640 | 25 ft | 4 kts | 69° |
| 2026-04-25 10:24 | 55.62856 | 12.63598 | 22 ft | 2 kts | 86° |
| 2026-04-25 10:25 | 55.62856 | 12.63597 | 22 ft | 0 kts | 86° |
| 2026-04-25 10:28 | 55.62856 | 12.63608 | 22 ft | 1 kts | 87° |
| 2026-04-25 10:28 | 55.62858 | 12.63645 | 22 ft | 5 kts | 86° |
| 2026-04-25 10:29 | 55.62857 | 12.63715 | 22 ft | 7 kts | 97° |
| 2026-04-25 10:29 | 55.62845 | 12.63810 | 24 ft | 9 kts | 103° |
| 2026-04-25 10:29 | 55.62827 | 12.63926 | 22 ft | 11 kts | 121° |
| 2026-04-25 10:29 | 55.62762 | 12.63945 | 22 ft | 9 kts | 207° |
| 2026-04-25 10:30 | 55.62706 | 12.63881 | 22 ft | 11 kts | 213° |
| 2026-04-25 10:30 | 55.62647 | 12.63869 | 23 ft | 10 kts | 137° |
| 2026-04-25 10:30 | 55.62605 | 12.63980 | 22 ft | 12 kts | 124° |
| 2026-04-25 10:30 | 55.62556 | 12.64109 | 22 ft | 14 kts | 123° |
| 2026-04-25 10:31 | 55.62502 | 12.64257 | 22 ft | 15 kts | 123° |
| 2026-04-25 10:31 | 55.62436 | 12.64410 | 24 ft | 15 kts | 129° |
| 2026-04-25 10:31 | 55.62346 | 12.64432 | 22 ft | 15 kts | 198° |
| 2026-04-25 10:31 | 55.62239 | 12.64378 | 21 ft | 16 kts | 198° |
| 2026-04-25 10:32 | 55.62132 | 12.64290 | 22 ft | 18 kts | 205° |
| 2026-04-25 10:32 | 55.62017 | 12.64194 | 22 ft | 19 kts | 205° |
| 2026-04-25 10:32 | 55.61893 | 12.64090 | 24 ft | 20 kts | 205° |
| 2026-04-25 10:32 | 55.61762 | 12.64079 | 23 ft | 18 kts | 174° |
| 2026-04-25 10:33 | 55.61643 | 12.64083 | 26 ft | 14 kts | 195° |
| 2026-04-25 10:33 | 55.61588 | 12.64024 | 28 ft | 6 kts | 222° |
| 2026-04-25 10:33 | 55.61518 | 12.63912 | 25 ft | 38 kts | 222° |
| 2026-04-25 10:33 | 55.61146 | 12.63334 | 27 ft | 101 kts | 222° |
| 2026-04-25 10:34 | 55.60479 | 12.62303 | 24 ft | 152 kts | 223° |
| 2026-04-25 10:34 | 55.59618 | 12.61026 | 316 ft | 166 kts | 225° |
| 2026-04-25 10:34 | 55.58744 | 12.59705 | 941 ft | 163 kts | 230° |
| 2026-04-25 10:34 | 55.57924 | 12.58364 | 1659 ft | 159 kts | 231° |
| 2026-04-25 10:35 | 55.57059 | 12.56999 | 2094 ft | 175 kts | 230° |
| 2026-04-25 10:35 | 55.56027 | 12.55610 | 2585 ft | 200 kts | 218° |
| 2026-04-25 10:35 | 55.54628 | 12.54753 | 3079 ft | 234 kts | 189° |
| 2026-04-25 10:35 | 55.52916 | 12.55430 | 3435 ft | 272 kts | 153° |
| 2026-04-25 10:36 | 55.51531 | 12.57792 | 4018 ft | 289 kts | 119° |
| 2026-04-25 10:36 | 55.50635 | 12.61046 | 4892 ft | 294 kts | 116° |
| 2026-04-25 10:36 | 55.49695 | 12.64322 | 5633 ft | 305 kts | 116° |
| 2026-04-25 10:36 | 55.48722 | 12.67698 | 6392 ft | 312 kts | 116° |
| 2026-04-25 10:37 | 55.47735 | 12.71141 | 7172 ft | 317 kts | 116° |
| 2026-04-25 10:37 | 55.46735 | 12.74642 | 8009 ft | 321 kts | 116° |
| 2026-04-25 10:37 | 55.45727 | 12.78182 | 8838 ft | 326 kts | 116° |
| 2026-04-25 10:37 | 55.44701 | 12.81783 | 9692 ft | 331 kts | 117° |
| 2026-04-25 10:38 | 55.43651 | 12.85468 | 10289 ft | 344 kts | 117° |
| 2026-04-25 10:38 | 55.42552 | 12.89325 | 10693 ft | 364 kts | 116° |
| 2026-04-25 10:38 | 55.41384 | 12.93424 | 11046 ft | 384 kts | 117° |